JBU315 KSYR-KBOS
Flight info
| Callsign | JBU315 |
|---|---|
| Flight time | 0h 49m |
| Altitude | 31000 |
| Route | LAMMS PONCT JFUND2 |
| Aircraft | A320/M-SDE3FGHIRWY/LB1 |
Departure
| Time | 2026-04-27 22:42 |
|---|---|
| Airport | Syracuse Hancock International Airport (KSYR) |
Arrival
| Time | 2026-04-27 23:32 |
|---|---|
| Airport | Boston Logan International Airport (KBOS) |
| Time | Latitude | Longitude | Altitude | Speed | Heading |
|---|---|---|---|---|---|
| 2026-04-27 22:19 | 43.11346 | -76.10946 | 424 ft | 0 kts | 201° |
| 2026-04-27 22:33 | 43.11362 | -76.10938 | 412 ft | 3 kts | 192° |
| 2026-04-27 22:34 | 43.11383 | -76.10935 | 418 ft | 3 kts | 164° |
| 2026-04-27 22:34 | 43.11397 | -76.10945 | 417 ft | 3 kts | 105° |
| 2026-04-27 22:34 | 43.11398 | -76.10953 | 418 ft | 0 kts | 89° |
| 2026-04-27 22:37 | 43.11399 | -76.10928 | 421 ft | 6 kts | 89° |
| 2026-04-27 22:37 | 43.11400 | -76.10861 | 422 ft | 0 kts | 88° |
| 2026-04-27 22:37 | 43.11394 | -76.10847 | 422 ft | 3 kts | 123° |
| 2026-04-27 22:37 | 43.11356 | -76.10830 | 414 ft | 9 kts | 171° |
| 2026-04-27 22:38 | 43.11273 | -76.10815 | 416 ft | 15 kts | 175° |
| 2026-04-27 22:38 | 43.11205 | -76.10817 | 423 ft | 9 kts | 181° |
| 2026-04-27 22:38 | 43.11136 | -76.10821 | 421 ft | 12 kts | 181° |
| 2026-04-27 22:38 | 43.11035 | -76.10823 | 424 ft | 16 kts | 197° |
| 2026-04-27 22:39 | 43.11001 | -76.10953 | 429 ft | 16 kts | 270° |
| 2026-04-27 22:39 | 43.10996 | -76.11111 | 432 ft | 18 kts | 267° |
| 2026-04-27 22:39 | 43.10987 | -76.11302 | 424 ft | 23 kts | 264° |
| 2026-04-27 22:39 | 43.10979 | -76.11541 | 426 ft | 27 kts | 267° |
| 2026-04-27 22:40 | 43.10971 | -76.11815 | 418 ft | 31 kts | 267° |
| 2026-04-27 22:40 | 43.10961 | -76.12107 | 428 ft | 31 kts | 268° |
| 2026-04-27 22:40 | 43.10953 | -76.12379 | 431 ft | 27 kts | 267° |
| 2026-04-27 22:40 | 43.10946 | -76.12561 | 430 ft | 10 kts | 266° |
| 2026-04-27 22:41 | 43.10927 | -76.12620 | 422 ft | 1 kts | 222° |
| 2026-04-27 22:41 | 43.10903 | -76.12627 | 432 ft | 7 kts | 176° |
| 2026-04-27 22:41 | 43.10841 | -76.12562 | 432 ft | 19 kts | 124° |
| 2026-04-27 22:41 | 43.10829 | -76.12297 | 423 ft | 49 kts | 87° |
| 2026-04-27 22:42 | 43.10854 | -76.11518 | 426 ft | 113 kts | 88° |
| 2026-04-27 22:42 | 43.10902 | -76.10213 | 455 ft | 157 kts | 87° |
| 2026-04-27 22:42 | 43.10961 | -76.08720 | 1055 ft | 158 kts | 86° |
| 2026-04-27 22:42 | 43.11028 | -76.07215 | 1656 ft | 159 kts | 89° |
| 2026-04-27 22:43 | 43.11103 | -76.05612 | 1997 ft | 181 kts | 89° |
| 2026-04-27 22:43 | 43.11175 | -76.03806 | 2307 ft | 201 kts | 89° |
| 2026-04-27 22:43 | 43.11254 | -76.01794 | 2643 ft | 226 kts | 88° |
| 2026-04-27 22:43 | 43.11345 | -75.99526 | 3102 ft | 248 kts | 89° |
| 2026-04-27 22:44 | 43.11445 | -75.97118 | 3806 ft | 259 kts | 89° |
| 2026-04-27 22:44 | 43.11549 | -75.94653 | 4037 ft | 261 kts | 88° |
| 2026-04-27 22:44 | 43.11654 | -75.92176 | 4121 ft | 261 kts | 88° |
| 2026-04-27 22:44 | 43.11760 | -75.89700 | 4120 ft | 259 kts | 88° |
| 2026-04-27 22:45 | 43.11866 | -75.87234 | 4126 ft | 260 kts | 88° |
| 2026-04-27 22:45 | 43.11973 | -75.84743 | 4120 ft | 261 kts | 88° |
| 2026-04-27 22:45 | 43.12081 | -75.82258 | 4118 ft | 260 kts | 88° |
| 2026-04-27 22:45 | 43.12117 | -75.81424 | 4120 ft | 260 kts | 88° |
| 2026-04-27 22:46 | 43.12163 | -75.80391 | 4120 ft | 261 kts | 88° |
| 2026-04-27 22:46 | 43.12213 | -75.79216 | 4124 ft | 261 kts | 88° |
| 2026-04-27 22:46 | 43.12216 | -75.79157 | 4120 ft | 261 kts | 88° |
| 2026-04-27 22:46 | 43.12326 | -75.76673 | 4126 ft | 260 kts | 88° |
| 2026-04-27 22:47 | 43.12434 | -75.74238 | 4128 ft | 259 kts | 89° |
| 2026-04-27 22:47 | 43.12543 | -75.71778 | 4128 ft | 259 kts | 89° |
| 2026-04-27 22:47 | 43.12653 | -75.69309 | 4126 ft | 260 kts | 88° |
| 2026-04-27 22:47 | 43.12763 | -75.66827 | 4123 ft | 260 kts | 88° |
| 2026-04-27 22:48 | 43.12873 | -75.64364 | 4123 ft | 258 kts | 89° |
| 2026-04-27 22:48 | 43.12748 | -75.61914 | 4399 ft | 264 kts | 107° |
| 2026-04-27 22:48 | 43.12403 | -75.60269 | 5126 ft | 262 kts | 107° |
| 2026-04-27 22:48 | 43.12131 | -75.58941 | 5686 ft | 262 kts | 107° |
| 2026-04-27 22:49 | 43.11648 | -75.56518 | 6647 ft | 264 kts | 107° |
| 2026-04-27 22:49 | 43.11170 | -75.54092 | 7446 ft | 270 kts | 107° |
| 2026-04-27 22:49 | 43.10678 | -75.51593 | 8250 ft | 275 kts | 107° |
| 2026-04-27 22:49 | 43.10171 | -75.49043 | 9036 ft | 281 kts | 106° |
| 2026-04-27 22:50 | 43.09645 | -75.46425 | 9804 ft | 287 kts | 105° |
| 2026-04-27 22:50 | 43.09107 | -75.43781 | 10403 ft | 299 kts | 105° |
| 2026-04-27 22:50 | 43.08527 | -75.40934 | 10635 ft | 322 kts | 105° |
| 2026-04-27 22:50 | 43.07910 | -75.37897 | 11041 ft | 337 kts | 104° |
| 2026-04-27 22:51 | 43.07492 | -75.35839 | 11450 ft | 341 kts | 104° |
| 2026-04-27 22:51 | 43.06843 | -75.32663 | 12151 ft | 345 kts | 104° |
| 2026-04-27 22:51 | 43.06196 | -75.29504 | 12836 ft | 349 kts | 104° |
| 2026-04-27 22:51 | 43.05531 | -75.26282 | 13542 ft | 353 kts | 104° |
| 2026-04-27 22:52 | 43.04860 | -75.23018 | 14187 ft | 358 kts | 103° |
| 2026-04-27 22:52 | 43.04185 | -75.19724 | 14792 ft | 361 kts | 103° |
| 2026-04-27 22:52 | 43.03509 | -75.16440 | 15403 ft | 364 kts | 104° |
| 2026-04-27 22:52 | 43.02818 | -75.13101 | 16011 ft | 367 kts | 103° |
| 2026-04-27 22:53 | 43.02115 | -75.09708 | 16607 ft | 370 kts | 103° |
| 2026-04-27 22:53 | 43.01408 | -75.06305 | 17231 ft | 374 kts | 103° |
| 2026-04-27 22:53 | 43.00701 | -75.02904 | 17847 ft | 376 kts | 102° |
| 2026-04-27 22:53 | 42.99978 | -74.99440 | 18454 ft | 380 kts | 102° |
| 2026-04-27 22:54 | 42.99250 | -74.95950 | 18987 ft | 383 kts | 102° |
| 2026-04-27 22:54 | 42.98518 | -74.92437 | 19507 ft | 387 kts | 102° |
| 2026-04-27 22:54 | 42.97780 | -74.88887 | 20026 ft | 390 kts | 102° |
| 2026-04-27 22:54 | 42.97035 | -74.85302 | 20537 ft | 394 kts | 102° |
| 2026-04-27 22:55 | 42.96277 | -74.81675 | 21037 ft | 398 kts | 102° |
| 2026-04-27 22:55 | 42.95513 | -74.78031 | 21515 ft | 402 kts | 102° |
| 2026-04-27 22:55 | 42.94739 | -74.74344 | 21982 ft | 405 kts | 102° |
| 2026-04-27 22:55 | 42.93965 | -74.70676 | 22438 ft | 409 kts | 102° |
| 2026-04-27 22:56 | 42.93171 | -74.66933 | 22897 ft | 413 kts | 101° |
| 2026-04-27 22:56 | 42.92368 | -74.63151 | 23352 ft | 416 kts | 102° |
| 2026-04-27 22:56 | 42.91559 | -74.59341 | 23814 ft | 420 kts | 101° |
| 2026-04-27 22:56 | 42.90744 | -74.55506 | 24180 ft | 423 kts | 101° |
| 2026-04-27 22:57 | 42.89919 | -74.51623 | 24534 ft | 427 kts | 101° |
| 2026-04-27 22:57 | 42.89092 | -74.47731 | 24904 ft | 430 kts | 101° |
| 2026-04-27 22:57 | 42.88252 | -74.43794 | 25271 ft | 433 kts | 101° |
| 2026-04-27 22:57 | 42.87406 | -74.39842 | 25635 ft | 437 kts | 101° |
| 2026-04-27 22:58 | 42.86552 | -74.35853 | 25997 ft | 440 kts | 101° |
| 2026-04-27 22:58 | 42.85687 | -74.31826 | 26369 ft | 444 kts | 101° |
| 2026-04-27 22:58 | 42.84816 | -74.27783 | 26698 ft | 447 kts | 101° |
| 2026-04-27 22:58 | 42.83928 | -74.23673 | 26849 ft | 456 kts | 101° |
| 2026-04-27 22:59 | 42.83025 | -74.19492 | 26981 ft | 464 kts | 101° |
| 2026-04-27 22:59 | 42.82106 | -74.15232 | 27111 ft | 472 kts | 101° |
| 2026-04-27 22:59 | 42.81177 | -74.10930 | 27245 ft | 479 kts | 101° |
| 2026-04-27 22:59 | 42.80224 | -74.06539 | 27367 ft | 487 kts | 101° |
| 2026-04-27 23:00 | 42.78262 | -73.97563 | 27626 ft | 500 kts | 101° |
| 2026-04-27 23:00 | 42.77276 | -73.93051 | 27756 ft | 506 kts | 101° |
| 2026-04-27 23:00 | 42.76264 | -73.88433 | 27921 ft | 511 kts | 101° |
| 2026-04-27 23:01 | 42.75272 | -73.83776 | 28243 ft | 511 kts | 98° |
| 2026-04-27 23:01 | 42.74721 | -73.79058 | 28635 ft | 502 kts | 88° |
| 2026-04-27 23:01 | 42.74642 | -73.74333 | 29039 ft | 499 kts | 84° |
| 2026-04-27 23:01 | 42.74614 | -73.69609 | 29462 ft | 499 kts | 84° |
| 2026-04-27 23:02 | 42.74585 | -73.64887 | 29937 ft | 499 kts | 83° |
| 2026-04-27 23:02 | 42.74555 | -73.60170 | 30391 ft | 498 kts | 83° |
| 2026-04-27 23:02 | 42.74518 | -73.55450 | 30796 ft | 498 kts | 83° |
| 2026-04-27 23:02 | 42.74479 | -73.50749 | 31142 ft | 498 kts | 83° |
| 2026-04-27 23:03 | 42.74437 | -73.46044 | 31261 ft | 497 kts | 83° |
| 2026-04-27 23:03 | 42.74392 | -73.41340 | 31232 ft | 497 kts | 83° |
| 2026-04-27 23:03 | 42.74304 | -73.31948 | 31234 ft | 496 kts | 83° |
| 2026-04-27 23:04 | 42.74220 | -73.22587 | 31227 ft | 494 kts | 83° |
| 2026-04-27 23:04 | 42.73879 | -73.13217 | 31227 ft | 502 kts | 91° |
| 2026-04-27 23:05 | 42.73338 | -73.08510 | 31083 ft | 503 kts | 91° |
| 2026-04-27 23:05 | 42.72894 | -73.03873 | 30532 ft | 501 kts | 89° |
| 2026-04-27 23:05 | 42.72499 | -72.99159 | 29893 ft | 501 kts | 89° |
| 2026-04-27 23:05 | 42.72091 | -72.94460 | 29370 ft | 501 kts | 90° |
| 2026-04-27 23:06 | 42.71637 | -72.89803 | 28841 ft | 495 kts | 91° |
| 2026-04-27 23:06 | 42.71124 | -72.85183 | 28217 ft | 489 kts | 92° |
| 2026-04-27 23:06 | 42.70578 | -72.80659 | 27693 ft | 483 kts | 93° |
| 2026-04-27 23:06 | 42.70017 | -72.76183 | 27167 ft | 479 kts | 92° |
| 2026-04-27 23:07 | 42.69460 | -72.71749 | 26663 ft | 473 kts | 93° |
| 2026-04-27 23:07 | 42.68918 | -72.67356 | 26165 ft | 468 kts | 92° |
| 2026-04-27 23:07 | 42.68392 | -72.63014 | 25691 ft | 463 kts | 92° |
| 2026-04-27 23:07 | 42.67878 | -72.58721 | 25227 ft | 458 kts | 92° |
| 2026-04-27 23:08 | 42.67369 | -72.54471 | 24730 ft | 452 kts | 92° |
| 2026-04-27 23:08 | 42.66865 | -72.50272 | 24258 ft | 447 kts | 93° |
| 2026-04-27 23:08 | 42.66366 | -72.46173 | 24071 ft | 432 kts | 93° |
| 2026-04-27 23:08 | 42.65881 | -72.42220 | 23950 ft | 416 kts | 92° |
| 2026-04-27 23:09 | 42.65411 | -72.38425 | 23441 ft | 401 kts | 92° |
| 2026-04-27 23:09 | 42.64952 | -72.34725 | 22613 ft | 393 kts | 93° |
| 2026-04-27 23:09 | 42.64502 | -72.31081 | 21861 ft | 392 kts | 93° |
| 2026-04-27 23:09 | 42.64072 | -72.27428 | 21398 ft | 387 kts | 92° |
| 2026-04-27 23:10 | 42.63663 | -72.23838 | 20953 ft | 384 kts | 92° |
| 2026-04-27 23:10 | 42.63257 | -72.20265 | 20472 ft | 381 kts | 93° |
| 2026-04-27 23:10 | 42.62859 | -72.16786 | 20041 ft | 377 kts | 93° |
| 2026-04-27 23:10 | 42.62456 | -72.13279 | 19578 ft | 374 kts | 93° |
| 2026-04-27 23:11 | 42.62051 | -72.09810 | 19104 ft | 371 kts | 94° |
| 2026-04-27 23:11 | 42.61643 | -72.06339 | 18439 ft | 373 kts | 94° |
| 2026-04-27 23:11 | 42.61233 | -72.02910 | 18144 ft | 363 kts | 94° |
| 2026-04-27 23:11 | 42.60822 | -71.99544 | 17696 ft | 359 kts | 95° |
| 2026-04-27 23:12 | 42.60407 | -71.96209 | 17202 ft | 356 kts | 95° |
| 2026-04-27 23:12 | 42.59995 | -71.92915 | 16709 ft | 354 kts | 95° |
| 2026-04-27 23:12 | 42.59584 | -71.89631 | 16154 ft | 353 kts | 96° |
| 2026-04-27 23:12 | 42.59175 | -71.86349 | 15657 ft | 351 kts | 96° |
| 2026-04-27 23:13 | 42.58772 | -71.83116 | 15398 ft | 342 kts | 96° |
| 2026-04-27 23:13 | 42.58358 | -71.79970 | 15115 ft | 335 kts | 97° |
| 2026-04-27 23:13 | 42.57896 | -71.76894 | 14739 ft | 332 kts | 99° |
| 2026-04-27 23:13 | 42.57403 | -71.73830 | 14343 ft | 330 kts | 99° |
| 2026-04-27 23:14 | 42.56904 | -71.70800 | 13928 ft | 329 kts | 100° |
| 2026-04-27 23:14 | 42.56407 | -71.67787 | 13505 ft | 326 kts | 99° |
| 2026-04-27 23:14 | 42.56054 | -71.65628 | 13208 ft | 324 kts | 99° |
| 2026-04-27 23:14 | 42.55916 | -71.64776 | 13097 ft | 323 kts | 99° |
| 2026-04-27 23:15 | 42.55441 | -71.61816 | 12777 ft | 318 kts | 99° |
| 2026-04-27 23:15 | 42.54977 | -71.58939 | 12648 ft | 308 kts | 100° |
| 2026-04-27 23:15 | 42.54460 | -71.56161 | 12504 ft | 299 kts | 102° |
| 2026-04-27 23:15 | 42.53908 | -71.53491 | 12238 ft | 295 kts | 103° |
| 2026-04-27 23:16 | 42.53338 | -71.50834 | 11819 ft | 293 kts | 103° |
| 2026-04-27 23:16 | 42.52774 | -71.48215 | 11329 ft | 288 kts | 103° |
| 2026-04-27 23:16 | 42.52221 | -71.45627 | 10768 ft | 284 kts | 102° |
| 2026-04-27 23:16 | 42.51677 | -71.43059 | 10307 ft | 281 kts | 102° |
| 2026-04-27 23:17 | 42.51143 | -71.40518 | 10167 ft | 281 kts | 102° |
| 2026-04-27 23:17 | 42.50602 | -71.37980 | 10039 ft | 280 kts | 102° |
| 2026-04-27 23:17 | 42.50074 | -71.35447 | 9911 ft | 276 kts | 101° |
| 2026-04-27 23:17 | 42.49578 | -71.32983 | 9765 ft | 267 kts | 101° |
| 2026-04-27 23:18 | 42.49103 | -71.30587 | 9644 ft | 259 kts | 101° |
| 2026-04-27 23:18 | 42.48642 | -71.28268 | 9511 ft | 251 kts | 101° |
| 2026-04-27 23:18 | 42.48196 | -71.26025 | 9304 ft | 242 kts | 101° |
| 2026-04-27 23:18 | 42.47762 | -71.23833 | 8848 ft | 241 kts | 101° |
| 2026-04-27 23:19 | 42.47326 | -71.21627 | 8501 ft | 242 kts | 101° |
| 2026-04-27 23:19 | 42.46891 | -71.19435 | 8259 ft | 240 kts | 101° |
| 2026-04-27 23:19 | 42.46458 | -71.17260 | 8038 ft | 240 kts | 101° |
| 2026-04-27 23:19 | 42.46210 | -71.16004 | 7898 ft | 239 kts | 99° |
| 2026-04-27 23:20 | 42.45966 | -71.13798 | 7688 ft | 236 kts | 92° |
| 2026-04-27 23:20 | 42.45769 | -71.11594 | 7470 ft | 235 kts | 93° |
| 2026-04-27 23:20 | 42.45567 | -71.09399 | 7296 ft | 235 kts | 93° |
| 2026-04-27 23:20 | 42.45368 | -71.07229 | 7213 ft | 235 kts | 93° |
| 2026-04-27 23:21 | 42.45125 | -71.05037 | 7107 ft | 237 kts | 101° |
| 2026-04-27 23:21 | 42.44401 | -71.03015 | 7006 ft | 244 kts | 123° |
| 2026-04-27 23:21 | 42.43125 | -71.01473 | 6910 ft | 250 kts | 147° |
| 2026-04-27 23:21 | 42.41560 | -71.00410 | 6827 ft | 252 kts | 150° |
| 2026-04-27 23:22 | 42.39986 | -70.99369 | 6727 ft | 252 kts | 150° |
| 2026-04-27 23:22 | 42.38417 | -70.98327 | 6620 ft | 251 kts | 150° |
| 2026-04-27 23:22 | 42.36848 | -70.97283 | 6542 ft | 251 kts | 150° |
| 2026-04-27 23:22 | 42.35282 | -70.96241 | 6447 ft | 250 kts | 150° |
| 2026-04-27 23:23 | 42.33729 | -70.95205 | 6290 ft | 247 kts | 150° |
| 2026-04-27 23:23 | 42.32148 | -70.94285 | 5973 ft | 249 kts | 162° |
| 2026-04-27 23:23 | 42.30424 | -70.94034 | 5684 ft | 251 kts | 182° |
| 2026-04-27 23:23 | 42.28728 | -70.94539 | 5407 ft | 250 kts | 197° |
| 2026-04-27 23:24 | 42.27076 | -70.95268 | 5114 ft | 249 kts | 197° |
| 2026-04-27 23:24 | 42.25431 | -70.95979 | 4822 ft | 247 kts | 197° |
| 2026-04-27 23:24 | 42.23798 | -70.96679 | 4532 ft | 245 kts | 197° |
| 2026-04-27 23:24 | 42.22182 | -70.97369 | 4253 ft | 243 kts | 196° |
| 2026-04-27 23:25 | 42.20567 | -70.98061 | 3932 ft | 243 kts | 197° |
| 2026-04-27 23:25 | 42.18961 | -70.98747 | 3647 ft | 242 kts | 197° |
| 2026-04-27 23:25 | 42.17363 | -70.99433 | 3355 ft | 240 kts | 197° |
| 2026-04-27 23:25 | 42.15784 | -71.00150 | 3116 ft | 236 kts | 198° |
| 2026-04-27 23:26 | 42.14383 | -71.01168 | 2993 ft | 232 kts | 225° |
| 2026-04-27 23:26 | 42.13590 | -71.03014 | 2993 ft | 229 kts | 259° |
| 2026-04-27 23:26 | 42.13671 | -71.05105 | 2994 ft | 224 kts | 291° |
| 2026-04-27 23:26 | 42.14451 | -71.06866 | 2992 ft | 218 kts | 322° |
| 2026-04-27 23:27 | 42.15760 | -71.07832 | 2999 ft | 214 kts | 342° |
| 2026-04-27 23:27 | 42.17181 | -71.08418 | 3002 ft | 212 kts | 351° |
| 2026-04-27 23:27 | 42.18639 | -71.08712 | 2999 ft | 210 kts | 358° |
| 2026-04-27 23:27 | 42.20021 | -71.08457 | 3001 ft | 194 kts | 21° |
| 2026-04-27 23:28 | 42.21274 | -71.07851 | 2954 ft | 189 kts | 21° |
| 2026-04-27 23:28 | 42.22482 | -71.07270 | 2751 ft | 180 kts | 21° |
| 2026-04-27 23:28 | 42.23638 | -71.06713 | 2523 ft | 177 kts | 21° |
| 2026-04-27 23:28 | 42.24424 | -71.06335 | 2367 ft | 177 kts | 22° |
| 2026-04-27 23:29 | 42.25943 | -71.05603 | 2059 ft | 174 kts | 22° |
| 2026-04-27 23:29 | 42.27086 | -71.05052 | 1830 ft | 173 kts | 22° |
| 2026-04-27 23:29 | 42.28210 | -71.04510 | 1586 ft | 171 kts | 22° |
| 2026-04-27 23:29 | 42.29280 | -71.03996 | 1370 ft | 154 kts | 23° |
| 2026-04-27 23:30 | 42.30241 | -71.03532 | 1158 ft | 143 kts | 23° |
| 2026-04-27 23:30 | 42.31160 | -71.03090 | 961 ft | 139 kts | 24° |
| 2026-04-27 23:30 | 42.32070 | -71.02654 | 784 ft | 138 kts | 23° |
| 2026-04-27 23:30 | 42.32985 | -71.02211 | 570 ft | 140 kts | 23° |
| 2026-04-27 23:31 | 42.33907 | -71.01761 | 368 ft | 141 kts | 22° |
| 2026-04-27 23:31 | 42.34828 | -71.01325 | 199 ft | 140 kts | 24° |
| 2026-04-27 23:31 | 42.35739 | -71.00884 | 30 ft | 135 kts | 22° |
| 2026-04-27 23:31 | 42.36482 | -71.00517 | 25 ft | 89 kts | 20° |
| 2026-04-27 23:32 | 42.36963 | -71.00285 | 26 ft | 66 kts | 20° |
| 2026-04-27 23:32 | 42.37250 | -71.00187 | 27 ft | 39 kts | 3° |
| 2026-04-27 23:32 | 42.37435 | -71.00225 | 29 ft | 0 kts | 348° |
| 2026-04-27 23:33 | 42.37436 | -71.00225 | 29 ft | 1 kts | 348° |
| 2026-04-27 23:33 | 42.37466 | -71.00233 | 25 ft | 9 kts | 348° |
| 2026-04-27 23:33 | 42.37563 | -71.00262 | 27 ft | 19 kts | 345° |
| 2026-04-27 23:33 | 42.37713 | -71.00307 | 28 ft | 24 kts | 341° |
| 2026-04-27 23:34 | 42.37808 | -71.00480 | 28 ft | 26 kts | 290° |
| 2026-04-27 23:34 | 42.37831 | -71.00628 | 28 ft | 9 kts | 250° |
| 2026-04-27 23:34 | 42.37774 | -71.00679 | 28 ft | 11 kts | 202° |
| 2026-04-27 23:34 | 42.37689 | -71.00719 | 27 ft | 15 kts | 199° |
| 2026-04-27 23:35 | 42.37583 | -71.00770 | 27 ft | 18 kts | 200° |
| 2026-04-27 23:35 | 42.37417 | -71.00850 | 27 ft | 31 kts | 200° |
| 2026-04-27 23:35 | 42.37209 | -71.00967 | 28 ft | 33 kts | 208° |
| 2026-04-27 23:35 | 42.37047 | -71.01072 | 25 ft | 0 kts | 205° |
| 2026-04-27 23:40 | 42.37045 | -71.01073 | 25 ft | 2 kts | 205° |
| 2026-04-27 23:40 | 42.37009 | -71.01097 | 28 ft | 12 kts | 207° |
| 2026-04-27 23:40 | 42.36906 | -71.01202 | 29 ft | 23 kts | 220° |
| 2026-04-27 23:41 | 42.36799 | -71.01276 | 30 ft | 13 kts | 162° |
| 2026-04-27 23:41 | 42.36704 | -71.01249 | 28 ft | 16 kts | 194° |
| 2026-04-27 23:41 | 42.36590 | -71.01292 | 26 ft | 15 kts | 201° |
| 2026-04-27 23:41 | 42.36561 | -71.01351 | 26 ft | 6 kts | 291° |
| 2026-04-27 23:42 | 42.36566 | -71.01364 | 26 ft | 3 kts | 295° |
| 2026-04-27 23:42 | 42.36575 | -71.01388 | 31 ft | 0 kts | 298° |
| 2026-04-27 23:42 | 42.36575 | -71.01389 | 31 ft | 0 kts | 298° |